sensor_id;sensor_type;location;lat;lon;timestamp;P1;durP1;ratioP1;P2;durP2;ratioP2
44197;SDS011;30157;55.512;37.764;2023-10-13T00:00:38;2.30;;;1.25;;
44197;SDS011;30157;55.512;37.764;2023-10-13T00:03:06;5.50;;;1.50;;
44197;SDS011;30157;55.512;37.764;2023-10-13T00:05:41;4.90;;;1.55;;
44197;SDS011;30157;55.512;37.764;2023-10-13T00:08:08;4.63;;;1.35;;
44197;SDS011;30157;55.512;37.764;2023-10-13T00:10:34;6.82;;;2.00;;
44197;SDS011;30157;55.512;37.764;2023-10-13T00:13:01;4.45;;;1.40;;
44197;SDS011;30157;55.512;37.764;2023-10-13T00:15:43;4.28;;;1.40;;
44197;SDS011;30157;55.512;37.764;2023-10-13T00:18:37;5.03;;;1.40;;
44197;SDS011;30157;55.512;37.764;2023-10-13T00:21:10;4.93;;;1.33;;
44197;SDS011;30157;55.512;37.764;2023-10-13T00:23:41;5.13;;;1.40;;
44197;SDS011;30157;55.512;37.764;2023-10-13T00:26:24;4.25;;;1.10;;
44197;SDS011;30157;55.512;37.764;2023-10-13T00:28:54;3.70;;;1.10;;
44197;SDS011;30157;55.512;37.764;2023-10-13T00:31:34;6.43;;;1.08;;
44197;SDS011;30157;55.512;37.764;2023-10-13T00:34:03;3.33;;;1.10;;
44197;SDS011;30157;55.512;37.764;2023-10-13T00:36:45;2.03;;;0.93;;
44197;SDS011;30157;55.512;37.764;2023-10-13T00:39:29;2.20;;;1.10;;
44197;SDS011;30157;55.512;37.764;2023-10-13T00:41:55;5.10;;;1.25;;
44197;SDS011;30157;55.512;37.764;2023-10-13T00:44:31;2.70;;;1.10;;
44197;SDS011;30157;55.512;37.764;2023-10-13T00:47:04;4.30;;;1.00;;
44197;SDS011;30157;55.512;37.764;2023-10-13T00:49:33;3.50;;;1.20;;
44197;SDS011;30157;55.512;37.764;2023-10-13T00:52:08;4.40;;;1.05;;
44197;SDS011;30157;55.512;37.764;2023-10-13T00:54:36;3.88;;;1.27;;
44197;SDS011;30157;55.512;37.764;2023-10-13T00:57:04;4.32;;;1.38;;
44197;SDS011;30157;55.512;37.764;2023-10-13T00:59:37;5.00;;;1.50;;
44197;SDS011;30157;55.512;37.764;2023-10-13T01:02:03;2.80;;;1.30;;
44197;SDS011;30157;55.512;37.764;2023-10-13T01:04:47;4.75;;;1.30;;
44197;SDS011;30157;55.512;37.764;2023-10-13T01:07:13;4.65;;;1.50;;
44197;SDS011;30157;55.512;37.764;2023-10-13T01:09:41;3.67;;;1.05;;
44197;SDS011;30157;55.512;37.764;2023-10-13T01:12:07;2.67;;;1.20;;
44197;SDS011;30157;55.512;37.764;2023-10-13T01:14:34;7.40;;;1.83;;
44197;SDS011;30157;55.512;37.764;2023-10-13T01:17:01;4.30;;;1.30;;
44197;SDS011;30157;55.512;37.764;2023-10-13T01:19:27;4.03;;;1.40;;
44197;SDS011;30157;55.512;37.764;2023-10-13T01:21:53;6.20;;;1.40;;
44197;SDS011;30157;55.512;37.764;2023-10-13T01:24:31;6.28;;;1.38;;
44197;SDS011;30157;55.512;37.764;2023-10-13T01:27:01;3.05;;;1.30;;
44197;SDS011;30157;55.512;37.764;2023-10-13T01:29:43;4.35;;;1.10;;
44197;SDS011;30157;55.512;37.764;2023-10-13T01:32:36;4.93;;;1.38;;
44197;SDS011;30157;55.512;37.764;2023-10-13T01:35:09;7.22;;;1.40;;
44197;SDS011;30157;55.512;37.764;2023-10-13T01:37:35;3.17;;;1.48;;
44197;SDS011;30157;55.512;37.764;2023-10-13T01:40:01;3.65;;;1.30;;
44197;SDS011;30157;55.512;37.764;2023-10-13T01:42:27;5.90;;;1.45;;
44197;SDS011;30157;55.512;37.764;2023-10-13T01:44:53;4.03;;;1.25;;
44197;SDS011;30157;55.512;37.764;2023-10-13T01:47:31;4.32;;;1.20;;
44197;SDS011;30157;55.512;37.764;2023-10-13T01:49:59;2.45;;;1.02;;
44197;SDS011;30157;55.512;37.764;2023-10-13T01:52:41;5.32;;;1.50;;
44197;SDS011;30157;55.512;37.764;2023-10-13T01:55:07;6.00;;;1.48;;
44197;SDS011;30157;55.512;37.764;2023-10-13T01:57:36;4.75;;;1.50;;
44197;SDS011;30157;55.512;37.764;2023-10-13T02:00:03;7.05;;;1.85;;
44197;SDS011;30157;55.512;37.764;2023-10-13T02:02:38;3.05;;;1.38;;
44197;SDS011;30157;55.512;37.764;2023-10-13T02:05:11;8.52;;;1.40;;
44197;SDS011;30157;55.512;37.764;2023-10-13T02:07:43;5.47;;;1.70;;
44197;SDS011;30157;55.512;37.764;2023-10-13T02:10:11;3.60;;;1.20;;
44197;SDS011;30157;55.512;37.764;2023-10-13T02:12:40;6.13;;;1.67;;
44197;SDS011;30157;55.512;37.764;2023-10-13T02:15:11;6.55;;;1.75;;
44197;SDS011;30157;55.512;37.764;2023-10-13T02:17:47;5.10;;;1.60;;
44197;SDS011;30157;55.512;37.764;2023-10-13T02:20:18;3.50;;;1.42;;
44197;SDS011;30157;55.512;37.764;2023-10-13T02:22:47;5.70;;;1.70;;
44197;SDS011;30157;55.512;37.764;2023-10-13T02:25:16;3.58;;;1.38;;
44197;SDS011;30157;55.512;37.764;2023-10-13T02:28:01;4.43;;;1.92;;
44197;SDS011;30157;55.512;37.764;2023-10-13T02:30:28;3.78;;;1.45;;
44197;SDS011;30157;55.512;37.764;2023-10-13T02:32:55;8.18;;;2.22;;
44197;SDS011;30157;55.512;37.764;2023-10-13T02:35:21;6.15;;;1.65;;
44197;SDS011;30157;55.512;37.764;2023-10-13T02:37:56;5.13;;;1.58;;
44197;SDS011;30157;55.512;37.764;2023-10-13T02:40:24;5.75;;;1.50;;
44197;SDS011;30157;55.512;37.764;2023-10-13T02:42:49;6.57;;;1.88;;
44197;SDS011;30157;55.512;37.764;2023-10-13T02:45:16;4.47;;;1.20;;
44197;SDS011;30157;55.512;37.764;2023-10-13T02:47:47;4.55;;;1.50;;
44197;SDS011;30157;55.512;37.764;2023-10-13T02:50:33;5.53;;;1.67;;
44197;SDS011;30157;55.512;37.764;2023-10-13T02:52:59;8.85;;;1.55;;
44197;SDS011;30157;55.512;37.764;2023-10-13T02:55:25;5.47;;;1.52;;
44197;SDS011;30157;55.512;37.764;2023-10-13T02:57:53;10.38;;;1.80;;
44197;SDS011;30157;55.512;37.764;2023-10-13T03:00:21;6.38;;;1.80;;
44197;SDS011;30157;55.512;37.764;2023-10-13T03:02:49;6.03;;;2.40;;
44197;SDS011;30157;55.512;37.764;2023-10-13T03:05:24;3.20;;;1.47;;
44197;SDS011;30157;55.512;37.764;2023-10-13T03:07:55;4.85;;;1.40;;
44197;SDS011;30157;55.512;37.764;2023-10-13T03:10:22;6.95;;;1.60;;
44197;SDS011;30157;55.512;37.764;2023-10-13T03:12:54;7.30;;;1.42;;
44197;SDS011;30157;55.512;37.764;2023-10-13T03:15:21;4.78;;;1.27;;
44197;SDS011;30157;55.512;37.764;2023-10-13T03:17:55;4.97;;;1.70;;
44197;SDS011;30157;55.512;37.764;2023-10-13T03:20:24;4.75;;;1.65;;
44197;SDS011;30157;55.512;37.764;2023-10-13T03:22:56;6.40;;;1.95;;
44197;SDS011;30157;55.512;37.764;2023-10-13T03:25:23;3.55;;;1.50;;
44197;SDS011;30157;55.512;37.764;2023-10-13T03:27:55;6.30;;;1.83;;
44197;SDS011;30157;55.512;37.764;2023-10-13T03:30:22;5.50;;;1.58;;
44197;SDS011;30157;55.512;37.764;2023-10-13T03:32:56;4.88;;;1.42;;
44197;SDS011;30157;55.512;37.764;2023-10-13T03:35:23;6.45;;;1.60;;
44197;SDS011;30157;55.512;37.764;2023-10-13T03:38:03;7.88;;;1.60;;
44197;SDS011;30157;55.512;37.764;2023-10-13T03:40:31;6.85;;;1.92;;
44197;SDS011;30157;55.512;37.764;2023-10-13T03:42:58;5.90;;;1.50;;
44197;SDS011;30157;55.512;37.764;2023-10-13T03:45:38;11.10;;;2.38;;
44197;SDS011;30157;55.512;37.764;2023-10-13T03:48:05;7.78;;;2.10;;
44197;SDS011;30157;55.512;37.764;2023-10-13T03:50:40;5.50;;;1.48;;
44197;SDS011;30157;55.512;37.764;2023-10-13T03:53:14;3.92;;;1.35;;
44197;SDS011;30157;55.512;37.764;2023-10-13T03:55:40;6.07;;;1.50;;
44197;SDS011;30157;55.512;37.764;2023-10-13T03:58:14;5.70;;;1.73;;
44197;SDS011;30157;55.512;37.764;2023-10-13T04:00:42;7.60;;;1.50;;
44197;SDS011;30157;55.512;37.764;2023-10-13T04:03:08;5.57;;;1.35;;
44197;SDS011;30157;55.512;37.764;2023-10-13T04:05:34;6.55;;;1.67;;
44197;SDS011;30157;55.512;37.764;2023-10-13T04:08:06;6.20;;;1.40;;
44197;SDS011;30157;55.512;37.764;2023-10-13T04:10:54;7.18;;;1.83;;
44197;SDS011;30157;55.512;37.764;2023-10-13T04:13:21;5.40;;;1.75;;
44197;SDS011;30157;55.512;37.764;2023-10-13T04:16:09;7.80;;;1.55;;
44197;SDS011;30157;55.512;37.764;2023-10-13T04:18:48;5.28;;;1.50;;
44197;SDS011;30157;55.512;37.764;2023-10-13T04:21:23;9.38;;;2.90;;
44197;SDS011;30157;55.512;37.764;2023-10-13T04:24:07;6.47;;;1.58;;
44197;SDS011;30157;55.512;37.764;2023-10-13T04:26:43;6.80;;;1.65;;
44197;SDS011;30157;55.512;37.764;2023-10-13T04:29:28;6.18;;;1.60;;
44197;SDS011;30157;55.512;37.764;2023-10-13T04:32:14;5.50;;;1.50;;
44197;SDS011;30157;55.512;37.764;2023-10-13T04:34:51;7.05;;;1.50;;
44197;SDS011;30157;55.512;37.764;2023-10-13T04:37:23;4.95;;;1.42;;
44197;SDS011;30157;55.512;37.764;2023-10-13T04:39:58;6.63;;;1.55;;
44197;SDS011;30157;55.512;37.764;2023-10-13T04:42:35;7.40;;;1.67;;
44197;SDS011;30157;55.512;37.764;2023-10-13T04:45:19;6.20;;;1.75;;
44197;SDS011;30157;55.512;37.764;2023-10-13T04:47:59;7.82;;;1.50;;
44197;SDS011;30157;55.512;37.764;2023-10-13T04:50:59;5.45;;;1.50;;
44197;SDS011;30157;55.512;37.764;2023-10-13T04:53:45;5.00;;;1.55;;
44197;SDS011;30157;55.512;37.764;2023-10-13T04:56:29;9.65;;;2.38;;
44197;SDS011;30157;55.512;37.764;2023-10-13T04:59:07;6.63;;;1.50;;
44197;SDS011;30157;55.512;37.764;2023-10-13T05:01:52;5.80;;;1.83;;
44197;SDS011;30157;55.512;37.764;2023-10-13T05:04:36;5.20;;;1.45;;
44197;SDS011;30157;55.512;37.764;2023-10-13T05:07:22;6.80;;;1.45;;
44197;SDS011;30157;55.512;37.764;2023-10-13T05:10:07;5.50;;;1.42;;
44197;SDS011;30157;55.512;37.764;2023-10-13T05:12:53;10.93;;;1.85;;
44197;SDS011;30157;55.512;37.764;2023-10-13T05:15:44;8.65;;;1.70;;
44197;SDS011;30157;55.512;37.764;2023-10-13T05:18:30;6.15;;;1.63;;
44197;SDS011;30157;55.512;37.764;2023-10-13T05:21:15;9.40;;;1.88;;
44197;SDS011;30157;55.512;37.764;2023-10-13T05:23:59;6.57;;;1.60;;
44197;SDS011;30157;55.512;37.764;2023-10-13T05:26:44;6.30;;;1.45;;
44197;SDS011;30157;55.512;37.764;2023-10-13T05:29:28;6.85;;;1.60;;
44197;SDS011;30157;55.512;37.764;2023-10-13T05:32:14;5.95;;;1.50;;
44197;SDS011;30157;55.512;37.764;2023-10-13T05:34:58;4.97;;;1.45;;
44197;SDS011;30157;55.512;37.764;2023-10-13T05:37:43;6.60;;;1.40;;
44197;SDS011;30157;55.512;37.764;2023-10-13T05:40:27;7.68;;;1.95;;
44197;SDS011;30157;55.512;37.764;2023-10-13T05:43:14;5.90;;;1.30;;
44197;SDS011;30157;55.512;37.764;2023-10-13T05:46:01;4.18;;;1.08;;
44197;SDS011;30157;55.512;37.764;2023-10-13T05:48:47;4.72;;;1.30;;
44197;SDS011;30157;55.512;37.764;2023-10-13T05:51:26;7.45;;;1.83;;
44197;SDS011;30157;55.512;37.764;2023-10-13T05:54:12;5.78;;;1.40;;
44197;SDS011;30157;55.512;37.764;2023-10-13T05:59:24;6.07;;;1.42;;
44197;SDS011;30157;55.512;37.764;2023-10-13T06:02:09;5.95;;;1.33;;
44197;SDS011;30157;55.512;37.764;2023-10-13T06:04:53;7.00;;;1.75;;
44197;SDS011;30157;55.512;37.764;2023-10-13T06:07:42;6.88;;;1.50;;
44197;SDS011;30157;55.512;37.764;2023-10-13T06:10:27;5.72;;;1.38;;
44197;SDS011;30157;55.512;37.764;2023-10-13T06:13:11;4.32;;;1.45;;
44197;SDS011;30157;55.512;37.764;2023-10-13T06:15:56;5.70;;;1.65;;
44197;SDS011;30157;55.512;37.764;2023-10-13T06:18:41;7.28;;;1.30;;
44197;SDS011;30157;55.512;37.764;2023-10-13T06:21:25;10.27;;;1.98;;
44197;SDS011;30157;55.512;37.764;2023-10-13T06:24:10;5.32;;;1.63;;
44197;SDS011;30157;55.512;37.764;2023-10-13T06:26:54;6.55;;;1.60;;
44197;SDS011;30157;55.512;37.764;2023-10-13T06:29:39;5.20;;;1.20;;
44197;SDS011;30157;55.512;37.764;2023-10-13T06:32:06;5.05;;;1.40;;
44197;SDS011;30157;55.512;37.764;2023-10-13T06:34:38;5.53;;;1.35;;
44197;SDS011;30157;55.512;37.764;2023-10-13T06:37:13;6.05;;;1.55;;
44197;SDS011;30157;55.512;37.764;2023-10-13T06:39:49;6.53;;;1.27;;
44197;SDS011;30157;55.512;37.764;2023-10-13T06:42:15;5.97;;;1.30;;
44197;SDS011;30157;55.512;37.764;2023-10-13T06:44:42;5.32;;;1.10;;
44197;SDS011;30157;55.512;37.764;2023-10-13T06:47:11;4.07;;;1.38;;
44197;SDS011;30157;55.512;37.764;2023-10-13T06:49:38;3.50;;;1.02;;
44197;SDS011;30157;55.512;37.764;2023-10-13T06:52:05;8.18;;;1.48;;
44197;SDS011;30157;55.512;37.764;2023-10-13T06:54:35;4.70;;;1.27;;
44197;SDS011;30157;55.512;37.764;2023-10-13T06:57:04;4.68;;;1.00;;
44197;SDS011;30157;55.512;37.764;2023-10-13T06:59:33;4.50;;;1.38;;
44197;SDS011;30157;55.512;37.764;2023-10-13T07:02:00;2.95;;;1.15;;
44197;SDS011;30157;55.512;37.764;2023-10-13T07:04:45;4.13;;;1.13;;
44197;SDS011;30157;55.512;37.764;2023-10-13T07:07:12;4.00;;;1.40;;
44197;SDS011;30157;55.512;37.764;2023-10-13T07:09:43;4.57;;;1.60;;
44197;SDS011;30157;55.512;37.764;2023-10-13T07:12:20;5.28;;;1.40;;
44197;SDS011;30157;55.512;37.764;2023-10-13T07:14:52;5.03;;;1.55;;
44197;SDS011;30157;55.512;37.764;2023-10-13T07:17:36;3.05;;;1.48;;
44197;SDS011;30157;55.512;37.764;2023-10-13T07:20:05;5.00;;;1.60;;
44197;SDS011;30157;55.512;37.764;2023-10-13T07:22:42;7.63;;;1.70;;
44197;SDS011;30157;55.512;37.764;2023-10-13T07:25:20;5.88;;;1.33;;
44197;SDS011;30157;55.512;37.764;2023-10-13T07:27:51;4.72;;;1.58;;
44197;SDS011;30157;55.512;37.764;2023-10-13T07:30:19;5.78;;;1.50;;
44197;SDS011;30157;55.512;37.764;2023-10-13T07:32:51;4.28;;;1.30;;
44197;SDS011;30157;55.512;37.764;2023-10-13T07:35:19;4.60;;;1.33;;
44197;SDS011;30157;55.512;37.764;2023-10-13T07:37:49;5.18;;;1.52;;
44197;SDS011;30157;55.512;37.764;2023-10-13T07:40:18;5.68;;;1.52;;
44197;SDS011;30157;55.512;37.764;2023-10-13T07:42:53;3.35;;;1.15;;
44197;SDS011;30157;55.512;37.764;2023-10-13T07:45:36;4.63;;;1.45;;
44197;SDS011;30157;55.512;37.764;2023-10-13T07:48:06;3.10;;;1.48;;
44197;SDS011;30157;55.512;37.764;2023-10-13T07:51:09;5.50;;;1.80;;
44197;SDS011;30157;55.512;37.764;2023-10-13T07:53:42;5.90;;;1.30;;
44197;SDS011;30157;55.512;37.764;2023-10-13T07:56:15;4.57;;;1.42;;
44197;SDS011;30157;55.512;37.764;2023-10-13T07:58:45;3.63;;;1.23;;
44197;SDS011;30157;55.512;37.764;2023-10-13T08:01:26;5.38;;;1.80;;
44197;SDS011;30157;55.512;37.764;2023-10-13T08:03:55;3.33;;;1.20;;
44197;SDS011;30157;55.512;37.764;2023-10-13T08:06:39;3.67;;;1.30;;
44197;SDS011;30157;55.512;37.764;2023-10-13T08:09:09;3.17;;;1.00;;
44197;SDS011;30157;55.512;37.764;2023-10-13T08:11:55;4.50;;;1.17;;
44197;SDS011;30157;55.512;37.764;2023-10-13T08:14:22;4.65;;;1.20;;
44197;SDS011;30157;55.512;37.764;2023-10-13T08:16:49;2.33;;;1.00;;
44197;SDS011;30157;55.512;37.764;2023-10-13T08:19:19;3.00;;;1.15;;
44197;SDS011;30157;55.512;37.764;2023-10-13T08:22:21;5.15;;;1.10;;
44197;SDS011;30157;55.512;37.764;2023-10-13T08:24:48;3.75;;;1.40;;
44197;SDS011;30157;55.512;37.764;2023-10-13T08:27:16;4.15;;;1.30;;
44197;SDS011;30157;55.512;37.764;2023-10-13T08:29:45;3.40;;;1.00;;
44197;SDS011;30157;55.512;37.764;2023-10-13T08:32:34;5.03;;;1.15;;
44197;SDS011;30157;55.512;37.764;2023-10-13T08:35:22;4.22;;;1.17;;
44197;SDS011;30157;55.512;37.764;2023-10-13T08:37:55;5.43;;;1.40;;
44197;SDS011;30157;55.512;37.764;2023-10-13T08:40:30;4.22;;;1.15;;
44197;SDS011;30157;55.512;37.764;2023-10-13T08:43:14;4.18;;;1.20;;
44197;SDS011;30157;55.512;37.764;2023-10-13T08:45:42;1.95;;;0.93;;
44197;SDS011;30157;55.512;37.764;2023-10-13T08:48:12;2.83;;;1.20;;
44197;SDS011;30157;55.512;37.764;2023-10-13T08:50:44;2.10;;;1.13;;
44197;SDS011;30157;55.512;37.764;2023-10-13T08:53:21;3.10;;;1.15;;
44197;SDS011;30157;55.512;37.764;2023-10-13T08:58:55;3.90;;;0.90;;
44197;SDS011;30157;55.512;37.764;2023-10-13T09:01:24;4.60;;;1.00;;
44197;SDS011;30157;55.512;37.764;2023-10-13T09:04:13;3.03;;;1.17;;
44197;SDS011;30157;55.512;37.764;2023-10-13T09:07:02;3.22;;;1.30;;
44197;SDS011;30157;55.512;37.764;2023-10-13T09:12:18;2.60;;;1.13;;
44197;SDS011;30157;55.512;37.764;2023-10-13T09:14:51;3.45;;;1.20;;
44197;SDS011;30157;55.512;37.764;2023-10-13T09:17:40;5.57;;;3.10;;
44197;SDS011;30157;55.512;37.764;2023-10-13T09:20:12;5.93;;;2.33;;
44197;SDS011;30157;55.512;37.764;2023-10-13T09:22:54;4.47;;;1.20;;
44197;SDS011;30157;55.512;37.764;2023-10-13T09:25:28;2.00;;;0.95;;
44197;SDS011;30157;55.512;37.764;2023-10-13T09:28:14;2.55;;;0.90;;
44197;SDS011;30157;55.512;37.764;2023-10-13T09:30:44;1.90;;;1.02;;
44197;SDS011;30157;55.512;37.764;2023-10-13T09:33:11;5.95;;;1.08;;
44197;SDS011;30157;55.512;37.764;2023-10-13T09:38:15;2.80;;;0.98;;
44197;SDS011;30157;55.512;37.764;2023-10-13T09:40:42;4.10;;;1.08;;
44197;SDS011;30157;55.512;37.764;2023-10-13T09:43:17;2.95;;;1.10;;
44197;SDS011;30157;55.512;37.764;2023-10-13T09:45:47;2.92;;;0.95;;
44197;SDS011;30157;55.512;37.764;2023-10-13T09:48:34;4.25;;;1.30;;
44197;SDS011;30157;55.512;37.764;2023-10-13T09:51:06;2.90;;;1.20;;
44197;SDS011;30157;55.512;37.764;2023-10-13T09:53:58;3.90;;;1.20;;
44197;SDS011;30157;55.512;37.764;2023-10-13T09:56:53;7.85;;;1.73;;
44197;SDS011;30157;55.512;37.764;2023-10-13T10:02:06;3.00;;;1.00;;
44197;SDS011;30157;55.512;37.764;2023-10-13T10:04:35;4.57;;;1.02;;
44197;SDS011;30157;55.512;37.764;2023-10-13T10:07:28;5.30;;;1.25;;
44197;SDS011;30157;55.512;37.764;2023-10-13T10:09:58;6.55;;;1.90;;
44197;SDS011;30157;55.512;37.764;2023-10-13T10:18:00;9.40;;;1.50;;
44197;SDS011;30157;55.512;37.764;2023-10-13T10:20:30;3.95;;;1.65;;
44197;SDS011;30157;55.512;37.764;2023-10-13T10:23:09;4.05;;;1.65;;
44197;SDS011;30157;55.512;37.764;2023-10-13T10:25:49;5.30;;;1.63;;
44197;SDS011;30157;55.512;37.764;2023-10-13T10:28:19;4.07;;;1.60;;
44197;SDS011;30157;55.512;37.764;2023-10-13T10:30:47;4.65;;;1.50;;
44197;SDS011;30157;55.512;37.764;2023-10-13T10:33:13;2.15;;;1.10;;
44197;SDS011;30157;55.512;37.764;2023-10-13T10:35:44;3.78;;;1.17;;
44197;SDS011;30157;55.512;37.764;2023-10-13T10:38:13;4.45;;;1.27;;
44197;SDS011;30157;55.512;37.764;2023-10-13T10:47:12;6.18;;;1.23;;
44197;SDS011;30157;55.512;37.764;2023-10-13T10:50:02;5.18;;;0.90;;
44197;SDS011;30157;55.512;37.764;2023-10-13T10:52:51;2.53;;;0.73;;
44197;SDS011;30157;55.512;37.764;2023-10-13T10:55:22;2.70;;;1.00;;
44197;SDS011;30157;55.512;37.764;2023-10-13T10:57:59;3.53;;;0.90;;
44197;SDS011;30157;55.512;37.764;2023-10-13T11:00:27;2.67;;;1.00;;
44197;SDS011;30157;55.512;37.764;2023-10-13T11:03:07;3.22;;;1.00;;
44197;SDS011;30157;55.512;37.764;2023-10-13T11:05:42;4.10;;;0.90;;
44197;SDS011;30157;55.512;37.764;2023-10-13T11:08:20;12.38;;;6.10;;
44197;SDS011;30157;55.512;37.764;2023-10-13T11:10:52;3.85;;;1.80;;
44197;SDS011;30157;55.512;37.764;2023-10-13T11:13:17;9.65;;;4.20;;
44197;SDS011;30157;55.512;37.764;2023-10-13T11:15:56;4.80;;;2.13;;
44197;SDS011;30157;55.512;37.764;2023-10-13T11:18:32;110.05;;;41.80;;
44197;SDS011;30157;55.512;37.764;2023-10-13T11:21:03;88.80;;;52.85;;
44197;SDS011;30157;55.512;37.764;2023-10-13T11:23:33;47.90;;;33.95;;
44197;SDS011;30157;55.512;37.764;2023-10-13T11:26:02;39.30;;;31.05;;
44197;SDS011;30157;55.512;37.764;2023-10-13T11:28:30;9.45;;;5.93;;
44197;SDS011;30157;55.512;37.764;2023-10-13T11:30:58;12.27;;;8.43;;
44197;SDS011;30157;55.512;37.764;2023-10-13T11:33:25;7.90;;;5.20;;
44197;SDS011;30157;55.512;37.764;2023-10-13T11:35:57;11.10;;;6.80;;
44197;SDS011;30157;55.512;37.764;2023-10-13T11:38:28;10.40;;;8.55;;
44197;SDS011;30157;55.512;37.764;2023-10-13T11:41:08;16.15;;;12.05;;
44197;SDS011;30157;55.512;37.764;2023-10-13T11:43:44;90.20;;;74.53;;
44197;SDS011;30157;55.512;37.764;2023-10-13T11:46:19;42.47;;;35.08;;
44197;SDS011;30157;55.512;37.764;2023-10-13T11:49:03;12.93;;;7.65;;
44197;SDS011;30157;55.512;37.764;2023-10-13T11:51:39;33.25;;;26.42;;
44197;SDS011;30157;55.512;37.764;2023-10-13T11:56:47;28.58;;;20.65;;
44197;SDS011;30157;55.512;37.764;2023-10-13T11:59:14;27.15;;;17.88;;
44197;SDS011;30157;55.512;37.764;2023-10-13T12:01:47;49.55;;;31.02;;
44197;SDS011;30157;55.512;37.764;2023-10-13T12:04:33;8.45;;;4.03;;
44197;SDS011;30157;55.512;37.764;2023-10-13T12:06:59;17.48;;;10.75;;
44197;SDS011;30157;55.512;37.764;2023-10-13T12:09:50;95.25;;;53.78;;
44197;SDS011;30157;55.512;37.764;2023-10-13T12:12:20;65.70;;;38.83;;
44197;SDS011;30157;55.512;37.764;2023-10-13T12:14:53;39.53;;;21.63;;
44197;SDS011;30157;55.512;37.764;2023-10-13T12:17:26;34.08;;;20.60;;
44197;SDS011;30157;55.512;37.764;2023-10-13T12:20:02;31.95;;;19.85;;
44197;SDS011;30157;55.512;37.764;2023-10-13T12:22:49;30.25;;;18.33;;
44197;SDS011;30157;55.512;37.764;2023-10-13T12:25:21;18.08;;;8.50;;
44197;SDS011;30157;55.512;37.764;2023-10-13T12:27:58;11.55;;;6.18;;
44197;SDS011;30157;55.512;37.764;2023-10-13T12:30:41;38.47;;;24.13;;
44197;SDS011;30157;55.512;37.764;2023-10-13T12:33:19;13.45;;;7.90;;
44197;SDS011;30157;55.512;37.764;2023-10-13T12:36:03;14.68;;;10.27;;
44197;SDS011;30157;55.512;37.764;2023-10-13T12:38:38;14.80;;;8.80;;
44197;SDS011;30157;55.512;37.764;2023-10-13T12:41:04;9.80;;;7.60;;
44197;SDS011;30157;55.512;37.764;2023-10-13T12:43:49;20.80;;;12.77;;
44197;SDS011;30157;55.512;37.764;2023-10-13T12:46:33;12.90;;;8.15;;
44197;SDS011;30157;55.512;37.764;2023-10-13T12:49:18;13.88;;;8.25;;
44197;SDS011;30157;55.512;37.764;2023-10-13T12:52:02;14.68;;;4.78;;
44197;SDS011;30157;55.512;37.764;2023-10-13T12:54:28;4.38;;;2.25;;
44197;SDS011;30157;55.512;37.764;2023-10-13T12:57:00;6.60;;;1.70;;
44197;SDS011;30157;55.512;37.764;2023-10-13T12:59:28;4.32;;;1.58;;
44197;SDS011;30157;55.512;37.764;2023-10-13T13:01:54;9.70;;;6.00;;
44197;SDS011;30157;55.512;37.764;2023-10-13T13:04:19;8.75;;;4.70;;
44197;SDS011;30157;55.512;37.764;2023-10-13T13:06:46;6.15;;;2.92;;
44197;SDS011;30157;55.512;37.764;2023-10-13T13:09:12;11.43;;;5.18;;
44197;SDS011;30157;55.512;37.764;2023-10-13T13:11:38;10.63;;;4.00;;
44197;SDS011;30157;55.512;37.764;2023-10-13T13:14:07;5.40;;;2.30;;
44197;SDS011;30157;55.512;37.764;2023-10-13T13:16:33;5.38;;;2.22;;
44197;SDS011;30157;55.512;37.764;2023-10-13T13:19:00;6.75;;;3.53;;
44197;SDS011;30157;55.512;37.764;2023-10-13T13:21:38;5.72;;;2.85;;
44197;SDS011;30157;55.512;37.764;2023-10-13T13:24:04;4.38;;;1.92;;
44197;SDS011;30157;55.512;37.764;2023-10-13T13:26:39;6.80;;;2.75;;
44197;SDS011;30157;55.512;37.764;2023-10-13T13:29:07;9.85;;;2.20;;
44197;SDS011;30157;55.512;37.764;2023-10-13T13:31:37;5.82;;;2.70;;
44197;SDS011;30157;55.512;37.764;2023-10-13T13:34:10;6.55;;;2.38;;
44197;SDS011;30157;55.512;37.764;2023-10-13T13:36:38;5.03;;;2.03;;
44197;SDS011;30157;55.512;37.764;2023-10-13T13:39:12;5.80;;;2.28;;
44197;SDS011;30157;55.512;37.764;2023-10-13T13:41:43;6.10;;;2.10;;
44197;SDS011;30157;55.512;37.764;2023-10-13T13:44:09;5.20;;;2.20;;
44197;SDS011;30157;55.512;37.764;2023-10-13T13:46:44;6.97;;;2.60;;
44197;SDS011;30157;55.512;37.764;2023-10-13T13:49:09;7.50;;;2.78;;
44197;SDS011;30157;55.512;37.764;2023-10-13T13:51:46;9.82;;;3.67;;
44197;SDS011;30157;55.512;37.764;2023-10-13T13:54:20;4.93;;;2.80;;
44197;SDS011;30157;55.512;37.764;2023-10-13T13:56:49;6.95;;;2.88;;
44197;SDS011;30157;55.512;37.764;2023-10-13T13:59:15;6.82;;;3.10;;
44197;SDS011;30157;55.512;37.764;2023-10-13T14:01:44;9.25;;;3.20;;
44197;SDS011;30157;55.512;37.764;2023-10-13T14:04:10;6.78;;;2.63;;
44197;SDS011;30157;55.512;37.764;2023-10-13T14:06:36;6.13;;;2.60;;
44197;SDS011;30157;55.512;37.764;2023-10-13T14:09:03;4.20;;;2.10;;
44197;SDS011;30157;55.512;37.764;2023-10-13T14:11:58;6.35;;;1.90;;
44197;SDS011;30157;55.512;37.764;2023-10-13T14:14:43;3.30;;;1.60;;
44197;SDS011;30157;55.512;37.764;2023-10-13T14:17:34;3.70;;;1.92;;
44197;SDS011;30157;55.512;37.764;2023-10-13T14:20:01;7.03;;;2.53;;
44197;SDS011;30157;55.512;37.764;2023-10-13T14:22:40;6.38;;;1.80;;
44197;SDS011;30157;55.512;37.764;2023-10-13T14:25:07;7.70;;;1.95;;
44197;SDS011;30157;55.512;37.764;2023-10-13T14:27:43;4.60;;;2.13;;
44197;SDS011;30157;55.512;37.764;2023-10-13T14:30:09;5.20;;;1.88;;
44197;SDS011;30157;55.512;37.764;2023-10-13T14:32:35;6.95;;;2.50;;
44197;SDS011;30157;55.512;37.764;2023-10-13T14:35:06;5.85;;;2.15;;
44197;SDS011;30157;55.512;37.764;2023-10-13T14:37:51;5.33;;;2.43;;
44197;SDS011;30157;55.512;37.764;2023-10-13T14:40:17;6.45;;;2.30;;
44197;SDS011;30157;55.512;37.764;2023-10-13T14:42:47;5.95;;;1.70;;
44197;SDS011;30157;55.512;37.764;2023-10-13T14:45:14;6.57;;;1.77;;
44197;SDS011;30157;55.512;37.764;2023-10-13T14:47:43;6.07;;;1.90;;
44197;SDS011;30157;55.512;37.764;2023-10-13T14:50:10;6.00;;;1.65;;
44197;SDS011;30157;55.512;37.764;2023-10-13T14:52:46;6.10;;;1.88;;
44197;SDS011;30157;55.512;37.764;2023-10-13T14:55:14;4.47;;;1.77;;
44197;SDS011;30157;55.512;37.764;2023-10-13T14:57:47;4.57;;;1.67;;
44197;SDS011;30157;55.512;37.764;2023-10-13T15:00:16;6.78;;;1.70;;
44197;SDS011;30157;55.512;37.764;2023-10-13T15:02:51;4.03;;;1.70;;
44197;SDS011;30157;55.512;37.764;2023-10-13T15:05:19;6.03;;;1.70;;
44197;SDS011;30157;55.512;37.764;2023-10-13T15:07:44;6.05;;;2.00;;
44197;SDS011;30157;55.512;37.764;2023-10-13T15:10:11;4.50;;;1.90;;
44197;SDS011;30157;55.512;37.764;2023-10-13T15:12:44;6.55;;;1.50;;
44197;SDS011;30157;55.512;37.764;2023-10-13T15:15:10;4.53;;;2.20;;
44197;SDS011;30157;55.512;37.764;2023-10-13T15:17:45;4.25;;;1.92;;
44197;SDS011;30157;55.512;37.764;2023-10-13T15:20:11;4.35;;;1.73;;
44197;SDS011;30157;55.512;37.764;2023-10-13T15:22:44;4.07;;;1.52;;
44197;SDS011;30157;55.512;37.764;2023-10-13T15:25:13;5.25;;;1.98;;
44197;SDS011;30157;55.512;37.764;2023-10-13T15:28:01;7.60;;;2.50;;
44197;SDS011;30157;55.512;37.764;2023-10-13T15:30:34;6.45;;;2.22;;
44197;SDS011;30157;55.512;37.764;2023-10-13T15:33:29;4.88;;;1.88;;
44197;SDS011;30157;55.512;37.764;2023-10-13T15:35:56;6.45;;;2.35;;
44197;SDS011;30157;55.512;37.764;2023-10-13T15:38:21;7.07;;;3.17;;
44197;SDS011;30157;55.512;37.764;2023-10-13T15:40:50;9.10;;;3.55;;
44197;SDS011;30157;55.512;37.764;2023-10-13T15:43:19;9.48;;;4.45;;